Time;durP1;ratioP1;P1;durP2;ratioP2;P2;SDS_P1;SDS_P2;PMS_P1;PMS_P2;Temp;Humidity;BMP_temperature;BMP_pressure;BME280_temperature;BME280_humidity;BME280_pressure;Samples;Min_cycle;Max_cycle;Signal;HPM_P1;HPM_P2
2020/12/18 00:00:53;;;;;;;9.83;7.00;;;5.40;99.90;;;;;;5080156;28;20533;-67
2020/12/18 00:03:21;;;;;;;10.90;7.60;;;5.20;99.90;;;;;;5081994;28;20445;-67
2020/12/18 00:05:47;;;;;;;16.70;8.00;;;5.20;99.90;;;;;;5082395;28;20528;-67
2020/12/18 00:08:14;;;;;;;11.30;7.10;;;5.20;99.90;;;;;;5087966;28;20461;-67
2020/12/18 00:10:40;;;;;;;10.63;6.83;;;5.20;99.90;;;;;;5072488;28;20841;-67
2020/12/18 00:13:07;;;;;;;9.80;7.63;;;5.00;99.90;;;;;;5081714;28;20563;-67
2020/12/18 00:15:34;;;;;;;7.47;6.13;;;4.90;99.90;;;;;;5086431;28;21325;-67
2020/12/18 00:18:00;;;;;;;8.73;6.00;;;4.90;99.90;;;;;;5086026;28;20449;-67
2020/12/18 00:20:28;;;;;;;10.10;7.17;;;4.70;99.90;;;;;;5079228;28;20528;-68
2020/12/18 00:22:54;;;;;;;8.83;6.77;;;4.90;99.90;;;;;;5085616;28;20466;-67
2020/12/18 00:25:20;;;;;;;10.47;7.30;;;4.90;99.90;;;;;;5087650;28;20527;-67
2020/12/18 00:27:47;;;;;;;10.73;7.73;;;4.90;99.90;;;;;;5076294;28;20481;-67
2020/12/18 00:30:13;;;;;;;10.50;7.17;;;4.80;99.90;;;;;;5081503;28;20753;-67
2020/12/18 00:32:41;;;;;;;11.70;7.83;;;4.80;99.90;;;;;;5083486;28;20837;-67
2020/12/18 00:35:09;;;;;;;10.50;7.40;;;4.90;99.90;;;;;;5068903;28;20529;-67
2020/12/18 00:37:37;;;;;;;9.77;7.50;;;4.80;99.90;;;;;;5080222;28;20567;-67
2020/12/18 00:40:03;;;;;;;9.17;6.40;;;4.70;99.90;;;;;;5081946;28;20933;-67
2020/12/18 00:42:30;;;;;;;9.20;7.80;;;4.80;99.90;;;;;;5083649;28;20458;-68
2020/12/18 00:44:56;;;;;;;9.90;8.90;;;4.80;99.90;;;;;;5073966;28;20460;-67
2020/12/18 00:47:23;;;;;;;9.50;6.63;;;4.80;99.90;;;;;;5083784;28;20537;-67
2020/12/18 00:49:49;;;;;;;9.37;7.03;;;4.50;99.90;;;;;;5084366;28;20536;-67
2020/12/18 00:52:16;;;;;;;10.40;6.77;;;4.50;99.90;;;;;;5081086;28;20461;-67
2020/12/18 00:54:43;;;;;;;11.67;7.13;;;4.50;99.90;;;;;;5076535;28;20486;-67
2020/12/18 00:57:09;;;;;;;12.70;7.30;;;4.60;99.90;;;;;;5079634;28;20526;-67
2020/12/18 00:59:36;;;;;;;10.00;6.50;;;4.60;99.90;;;;;;5085222;28;20472;-67
2020/12/18 01:02:05;;;;;;;9.37;6.80;;;4.60;99.90;;;;;;5073851;28;20532;-68
2020/12/18 01:04:32;;;;;;;9.50;6.77;;;4.70;99.90;;;;;;5072781;28;20543;-68
2020/12/18 01:06:58;;;;;;;7.83;6.90;;;4.80;99.90;;;;;;5085373;28;20449;-67
2020/12/18 01:09:25;;;;;;;9.77;7.50;;;4.60;99.90;;;;;;5089553;28;20474;-67
2020/12/18 01:11:53;;;;;;;10.23;7.40;;;4.80;99.90;;;;;;5075461;28;20560;-67
2020/12/18 01:14:20;;;;;;;14.30;7.37;;;4.70;99.90;;;;;;5082950;28;20535;-67
2020/12/18 01:16:51;;;;;;;11.63;8.27;;;4.70;99.90;;;;;;5082295;28;20493;-67
2020/12/18 01:19:17;;;;;;;10.77;7.90;;;4.80;99.90;;;;;;5074587;28;20452;-67
2020/12/18 01:21:43;;;;;;;7.97;6.60;;;4.90;99.90;;;;;;5074802;28;20509;-67
2020/12/18 01:24:10;;;;;;;11.20;7.53;;;4.80;99.90;;;;;;5085388;28;20452;-67
2020/12/18 01:26:36;;;;;;;11.50;7.87;;;4.80;99.90;;;;;;5061457;28;20476;-67
2020/12/18 01:29:04;;;;;;;7.90;7.00;;;4.70;99.90;;;;;;5078626;28;20873;-67
2020/12/18 01:31:30;;;;;;;9.30;6.60;;;4.80;99.90;;;;;;5081972;28;20520;-67
2020/12/18 01:33:56;;;;;;;9.50;7.33;;;4.90;99.90;;;;;;5088191;28;21003;-67
2020/12/18 01:36:23;;;;;;;9.43;7.17;;;4.90;99.90;;;;;;5082921;28;20485;-67
2020/12/18 01:38:49;;;;;;;9.70;6.17;;;4.70;99.90;;;;;;5080640;28;20455;-67
2020/12/18 01:41:16;;;;;;;8.70;6.80;;;4.80;99.90;;;;;;5085865;28;21260;-67
2020/12/18 01:43:42;;;;;;;10.13;7.47;;;4.90;99.90;;;;;;5076125;28;20937;-67
2020/12/18 01:46:12;;;;;;;8.30;6.77;;;4.80;99.90;;;;;;5071035;28;20464;-67
2020/12/18 01:48:39;;;;;;;10.23;5.93;;;4.80;99.90;;;;;;5076049;28;20929;-68
2020/12/18 01:51:07;;;;;;;8.23;6.80;;;4.80;99.90;;;;;;5088751;28;20916;-67
2020/12/18 01:53:34;;;;;;;8.67;7.00;;;4.90;99.90;;;;;;5074023;28;20441;-67
2020/12/18 01:56:01;;;;;;;9.03;8.13;;;5.00;99.90;;;;;;5075962;28;20488;-67
2020/12/18 01:58:31;;;;;;;10.20;7.70;;;5.00;99.90;;;;;;5083270;28;20535;-67
2020/12/18 02:01:02;;;;;;;11.57;7.20;;;4.80;99.90;;;;;;5075452;28;20532;-67
2020/12/18 02:03:29;;;;;;;8.23;6.80;;;4.60;99.90;;;;;;5076436;28;20445;-67
2020/12/18 02:05:58;;;;;;;9.83;7.27;;;4.50;99.90;;;;;;5081855;28;20449;-67
2020/12/18 02:08:26;;;;;;;7.03;6.33;;;4.50;99.90;;;;;;5071397;28;20619;-67
2020/12/18 02:10:55;;;;;;;8.80;6.70;;;4.60;99.90;;;;;;5072109;28;20453;-67
2020/12/18 02:13:22;;;;;;;8.50;6.80;;;4.60;99.90;;;;;;5080735;28;20475;-67
2020/12/18 02:15:50;;;;;;;11.10;7.83;;;4.60;99.90;;;;;;5080674;28;21007;-67
2020/12/18 02:18:18;;;;;;;11.67;7.60;;;4.40;99.90;;;;;;5073792;28;20456;-67
2020/12/18 02:20:45;;;;;;;11.80;8.23;;;4.40;99.90;;;;;;5077547;28;20489;-68
2020/12/18 02:23:12;;;;;;;8.40;7.30;;;4.50;99.90;;;;;;5080692;28;20441;-68
2020/12/18 02:25:40;;;;;;;10.87;7.03;;;4.60;99.90;;;;;;5081766;28;20449;-68
2020/12/18 02:28:08;;;;;;;10.80;7.30;;;4.70;99.90;;;;;;5074393;28;20446;-67
2020/12/18 02:30:34;;;;;;;8.30;6.40;;;4.80;99.90;;;;;;5080799;28;20538;-67
2020/12/18 02:33:04;;;;;;;10.33;7.67;;;4.70;99.90;;;;;;5086349;28;20532;-68
2020/12/18 02:35:31;;;;;;;10.60;7.23;;;4.80;99.90;;;;;;5075760;28;20472;-68
2020/12/18 02:37:57;;;;;;;10.90;7.20;;;4.80;99.90;;;;;;5076306;28;20525;-67
2020/12/18 02:40:24;;;;;;;8.33;6.10;;;4.80;99.90;;;;;;5084379;28;20448;-67
2020/12/18 02:42:50;;;;;;;11.00;7.80;;;4.80;99.90;;;;;;5079871;28;20541;-67
2020/12/18 02:45:17;;;;;;;10.03;6.77;;;4.80;99.90;;;;;;5074750;28;20535;-67
2020/12/18 02:47:44;;;;;;;11.53;8.20;;;4.90;99.90;;;;;;5069672;28;20545;-69
2020/12/18 02:50:10;;;;;;;9.40;7.07;;;4.70;99.90;;;;;;5083532;28;20512;-67
2020/12/18 02:52:37;;;;;;;7.20;6.50;;;4.70;99.90;;;;;;5069421;28;20468;-67
2020/12/18 02:55:04;;;;;;;11.13;6.90;;;4.70;99.90;;;;;;5073197;28;20482;-67
2020/12/18 02:57:30;;;;;;;7.73;6.53;;;4.70;99.90;;;;;;5078054;28;20520;-66
2020/12/18 02:59:56;;;;;;;10.07;7.23;;;4.60;99.90;;;;;;5081499;28;20483;-67
2020/12/18 03:02:24;;;;;;;8.83;7.60;;;4.80;99.90;;;;;;5069322;28;20496;-66
2020/12/18 03:04:50;;;;;;;7.90;6.27;;;4.90;99.90;;;;;;5080721;28;20546;-68
2020/12/18 03:07:16;;;;;;;11.03;6.97;;;5.00;99.90;;;;;;5084008;28;20456;-68
2020/12/18 03:09:43;;;;;;;12.70;8.10;;;5.10;99.90;;;;;;5074492;28;20573;-68
2020/12/18 03:12:09;;;;;;;9.97;7.27;;;5.40;99.90;;;;;;5072669;28;20488;-68
2020/12/18 03:14:35;;;;;;;9.80;7.70;;;5.40;99.90;;;;;;5078497;28;20448;-68
2020/12/18 03:17:02;;;;;;;11.77;8.03;;;5.50;99.90;;;;;;5087902;28;20441;-69
2020/12/18 03:19:29;;;;;;;9.57;6.80;;;5.60;99.90;;;;;;5075710;28;20449;-67
2020/12/18 03:21:55;;;;;;;10.00;7.23;;;5.60;99.90;;;;;;5070197;28;20456;-68
2020/12/18 03:24:22;;;;;;;9.17;6.93;;;5.60;99.90;;;;;;5081143;28;20453;-68
2020/12/18 03:26:48;;;;;;;10.30;6.93;;;5.70;99.90;;;;;;5077931;28;20451;-66
2020/12/18 03:29:14;;;;;;;8.20;7.00;;;5.60;99.90;;;;;;5070561;28;20603;-66
2020/12/18 03:31:41;;;;;;;10.57;7.53;;;5.90;99.90;;;;;;5079063;28;20452;-67
2020/12/18 03:34:07;;;;;;;11.63;7.10;;;5.80;99.90;;;;;;5087522;28;20452;-66
2020/12/18 03:36:36;;;;;;;13.37;6.77;;;5.90;99.90;;;;;;5072735;28;20572;-66
2020/12/18 03:39:04;;;;;;;9.70;6.37;;;6.00;99.90;;;;;;5081307;28;20448;-66
2020/12/18 03:41:31;;;;;;;8.07;6.70;;;6.20;99.90;;;;;;5071534;28;20533;-66
2020/12/18 03:43:57;;;;;;;8.37;6.47;;;;;;;;;;5072314;28;20949;-66
2020/12/18 03:46:24;;;;;;;9.63;7.07;;;;;;;;;;5069219;28;20456;-66
2020/12/18 03:48:51;;;;;;;9.60;7.23;;;;;;;;;;5082171;28;20519;-66
2020/12/18 03:51:17;;;;;;;8.57;6.63;;;;;;;;;;5079258;28;20548;-69
2020/12/18 03:53:45;;;;;;;12.27;7.40;;;;;;;;;;5076166;28;21020;-68
2020/12/18 03:56:12;;;;;;;9.87;7.40;;;;;;;;;;5079621;28;20583;-68
2020/12/18 03:58:38;;;;;;;10.53;7.83;;;;;;;;;;5072948;28;20452;-66
2020/12/18 04:01:05;;;;;;;8.43;6.80;;;;;;;;;;5073475;28;20510;-68
2020/12/18 04:03:31;;;;;;;8.77;6.97;;;;;;;;;;5081504;28;20527;-69
2020/12/18 04:05:58;;;;;;;6.43;5.83;;;;;;;;;;5084414;28;20483;-68
2020/12/18 04:08:25;;;;;;;8.77;6.37;;;;;;;;;;5092857;28;20448;-68
2020/12/18 04:10:52;;;;;;;7.67;6.83;;;;;;;;;;5081216;28;20561;-67
2020/12/18 04:13:19;;;;;;;8.20;6.30;;;;;;;;;;5069998;28;20491;-67
2020/12/18 04:15:46;;;;;;;8.97;6.43;;;;;;;;;;5072406;28;20497;-68
2020/12/18 04:18:13;;;;;;;9.50;6.73;;;;;;;;;;5074255;28;20433;-68
2020/12/18 04:20:40;;;;;;;7.90;6.63;;;;;;;;;;5079388;28;21192;-66
2020/12/18 04:23:07;;;;;;;8.43;7.53;;;;;;;;;;5086766;28;20448;-67
2020/12/18 04:25:34;;;;;;;9.73;7.20;;;;;;;;;;5075778;28;20454;-67
2020/12/18 04:28:01;;;;;;;11.00;8.53;;;;;;;;;;5076539;28;20448;-67
2020/12/18 04:30:28;;;;;;;9.17;7.10;;;;;;;;;;5081125;28;20502;-67
2020/12/18 04:32:54;;;;;;;9.37;7.03;;;;;;;;;;5079594;28;20448;-68
2020/12/18 04:35:21;;;;;;;9.50;7.13;;;;;;;;;;5077979;28;20478;-68
2020/12/18 04:37:48;;;;;;;9.90;7.03;;;;;;;;;;5078858;28;20441;-67
2020/12/18 04:40:14;;;;;;;19.53;15.43;;;;;;;;;;5077859;28;20531;-69
2020/12/18 04:42:41;;;;;;;11.70;7.60;;;;;;;;;;5083446;28;20536;-68
2020/12/18 04:45:08;;;;;;;14.00;8.80;;;;;;;;;;5076614;28;20455;-68
2020/12/18 04:47:37;;;;;;;8.00;7.23;;;;;;;;;;5081823;28;20811;-68
2020/12/18 04:50:04;;;;;;;9.90;8.50;;;;;;;;;;5084959;28;20480;-68
2020/12/18 04:52:32;;;;;;;14.50;7.50;;;;;;;;;;5072700;28;20482;-68
2020/12/18 04:55:01;;;;;;;10.67;8.67;;;6.00;99.90;;;;;;5076389;28;20475;-68
2020/12/18 04:57:29;;;;;;;14.57;8.97;;;5.60;99.90;;;;;;5082224;28;20438;-69
2020/12/18 04:59:55;;;;;;;11.43;7.90;;;5.60;99.90;;;;;;5071632;28;20450;-68
2020/12/18 05:02:24;;;;;;;10.90;8.10;;;5.60;99.90;;;;;;5074725;28;20784;-68
2020/12/18 05:04:52;;;;;;;8.87;7.77;;;5.70;99.90;;;;;;5082706;28;20453;-68
2020/12/18 05:07:19;;;;;;;14.00;9.33;;;5.60;99.90;;;;;;5085669;28;20471;-68
2020/12/18 05:09:50;;;;;;;16.47;9.90;;;5.70;99.90;;;;;;5086626;28;20476;-68
2020/12/18 05:12:17;;;;;;;13.90;9.73;;;5.60;99.90;;;;;;5076892;28;20477;-68
2020/12/18 05:14:44;;;;;;;11.00;8.37;;;5.80;99.90;;;;;;5085226;28;20461;-68
2020/12/18 05:17:11;;;;;;;14.30;8.23;;;5.80;99.90;;;;;;5088576;28;21108;-68
2020/12/18 05:19:40;;;;;;;9.87;6.83;;;5.80;99.90;;;;;;5076373;28;20531;-68
2020/12/18 05:22:08;;;;;;;10.07;8.10;;;5.80;99.90;;;;;;5078781;28;20449;-68
2020/12/18 05:24:37;;;;;;;11.77;8.50;;;5.90;99.90;;;;;;5078024;28;20855;-68
2020/12/18 05:27:04;;;;;;;10.93;7.77;;;5.80;99.90;;;;;;5077572;28;20469;-68
2020/12/18 05:29:31;;;;;;;8.13;7.30;;;5.80;99.90;;;;;;5077308;28;20510;-68
2020/12/18 05:31:59;;;;;;;9.30;8.30;;;5.90;99.90;;;;;;5081785;28;20448;-68
2020/12/18 05:34:26;;;;;;;8.90;7.50;;;5.90;99.90;;;;;;5090615;28;20437;-68
2020/12/18 05:36:53;;;;;;;13.07;9.23;;;6.00;99.90;;;;;;5080082;28;20487;-69
2020/12/18 05:39:20;;;;;;;12.73;7.90;;;6.30;99.90;;;;;;5083680;28;20477;-68
2020/12/18 05:41:56;;;;;;;11.77;7.63;;;6.30;99.90;;;;;;5084607;28;20490;-68
2020/12/18 05:44:25;;;;;;;9.80;7.40;;;6.30;99.90;;;;;;5083376;28;20437;-68
2020/12/18 05:46:52;;;;;;;10.77;7.80;;;6.20;99.90;;;;;;5078447;28;20448;-68
2020/12/18 05:49:28;;;;;;;11.20;7.63;;;6.00;99.90;;;;;;5085678;28;20506;-68
2020/12/18 05:51:55;;;;;;;8.30;7.43;;;6.10;99.90;;;;;;5083370;28;20453;-68
2020/12/18 05:54:22;;;;;;;10.70;7.90;;;6.30;99.90;;;;;;5074910;28;20548;-68
2020/12/18 05:56:51;;;;;;;10.20;7.10;;;6.40;99.90;;;;;;5082374;28;20476;-68
2020/12/18 05:59:19;;;;;;;9.80;6.87;;;6.60;99.90;;;;;;5085013;28;20440;-68
2020/12/18 06:01:47;;;;;;;9.30;7.57;;;6.70;99.90;;;;;;5073947;28;20512;-68
2020/12/18 06:04:16;;;;;;;8.57;7.03;;;6.60;99.90;;;;;;5077003;28;20533;-68
2020/12/18 06:06:44;;;;;;;9.40;6.80;;;6.70;99.90;;;;;;5086342;28;20536;-68
2020/12/18 06:09:12;;;;;;;9.07;7.03;;;6.70;99.90;;;;;;5090011;28;20444;-68
2020/12/18 06:11:39;;;;;;;10.67;7.67;;;6.80;99.90;;;;;;5075962;28;20614;-68
2020/12/18 06:14:08;;;;;;;15.63;8.47;;;6.80;99.90;;;;;;5079939;28;20523;-68
2020/12/18 06:16:42;;;;;;;8.97;8.07;;;6.80;99.90;;;;;;5087800;28;20487;-68
2020/12/18 06:19:10;;;;;;;10.10;7.63;;;6.90;99.90;;;;;;5078482;28;20497;-68
2020/12/18 06:21:37;;;;;;;10.67;8.13;;;6.80;99.90;;;;;;5079215;28;20480;-68
2020/12/18 06:24:04;;;;;;;10.60;8.30;;;6.90;99.90;;;;;;5084338;28;20929;-68
2020/12/18 06:26:32;;;;;;;10.70;7.87;;;;;;;;;;5080589;28;20450;-68
2020/12/18 06:29:03;;;;;;;12.63;8.13;;;7.00;99.90;;;;;;5077372;28;20436;-68
2020/12/18 06:31:31;;;;;;;12.87;8.60;;;7.00;99.90;;;;;;5082530;28;20448;-68
2020/12/18 06:33:59;;;;;;;8.27;7.43;;;7.10;99.90;;;;;;5087614;28;20516;-69
2020/12/18 06:37:00;;;;;;;12.57;8.53;;;7.00;99.90;;;;;;5080913;28;20488;-68
2020/12/18 06:39:31;;;;;;;11.97;8.17;;;6.80;99.90;;;;;;5078632;28;20519;-68
2020/12/18 06:42:16;;;;;;;9.30;7.30;;;6.70;99.90;;;;;;5085185;28;20444;-68
2020/12/18 06:44:45;;;;;;;10.30;8.10;;;6.40;99.90;;;;;;5078900;28;20479;-68
2020/12/18 06:47:17;;;;;;;7.97;7.17;;;6.30;99.90;;;;;;5080262;28;20445;-68
2020/12/18 06:50:00;;;;;;;7.63;6.70;;;6.30;99.90;;;;;;5081141;28;21130;-68
2020/12/18 06:52:54;;;;;;;9.27;7.60;;;6.10;99.90;;;;;;5070113;28;20445;-68
2020/12/18 06:55:41;;;;;;;8.80;6.80;;;6.10;99.90;;;;;;5079087;28;21022;-68
2020/12/18 06:58:17;;;;;;;8.13;6.30;;;6.10;99.90;;;;;;5075294;28;20445;-68
2020/12/18 07:00:50;;;;;;;11.13;6.97;;;5.90;99.90;;;;;;5077962;28;20531;-69
2020/12/18 07:03:38;;;;;;;9.83;7.30;;;5.90;99.90;;;;;;5079149;28;20444;-68
2020/12/18 07:06:07;;;;;;;10.77;7.67;;;5.80;99.90;;;;;;5075804;28;20925;-68
2020/12/18 07:08:36;;;;;;;11.87;8.10;;;5.90;99.90;;;;;;5088810;28;20452;-68
2020/12/18 07:11:06;;;;;;;9.97;7.73;;;5.90;99.90;;;;;;5078883;28;20531;-69
2020/12/18 07:13:33;;;;;;;10.07;7.67;;;5.90;99.90;;;;;;5080299;28;20483;-68
2020/12/18 07:16:05;;;;;;;9.63;7.70;;;5.90;99.90;;;;;;5084826;28;20579;-68
2020/12/18 07:18:35;;;;;;;11.07;7.33;;;5.90;99.90;;;;;;5079814;28;20445;-68
2020/12/18 07:21:03;;;;;;;10.90;8.20;;;5.90;99.90;;;;;;5078824;28;20462;-68
2020/12/18 07:23:32;;;;;;;9.63;7.83;;;6.00;99.90;;;;;;5073612;28;20434;-68
2020/12/18 07:25:59;;;;;;;10.03;8.70;;;6.10;99.90;;;;;;5088027;28;20477;-68
2020/12/18 07:28:27;;;;;;;11.53;8.20;;;6.10;99.90;;;;;;5077416;28;20467;-68
2020/12/18 07:30:56;;;;;;;12.97;9.50;;;6.30;99.90;;;;;;5086343;28;20536;-68
2020/12/18 07:33:23;;;;;;;10.37;7.97;;;6.30;99.90;;;;;;5090137;28;20532;-68
2020/12/18 07:35:51;;;;;;;10.10;8.17;;;6.30;99.90;;;;;;5089169;28;20477;-68
2020/12/18 07:38:22;;;;;;;9.53;8.03;;;6.40;99.90;;;;;;5079480;28;20536;-68
2020/12/18 07:40:51;;;;;;;13.50;8.87;;;6.50;99.90;;;;;;5089743;28;20444;-68
2020/12/18 07:43:20;;;;;;;11.90;8.57;;;6.50;99.90;;;;;;5092852;28;20444;-68
2020/12/18 07:45:49;;;;;;;11.07;7.80;;;6.50;99.90;;;;;;5078425;28;20449;-68
2020/12/18 07:48:17;;;;;;;13.00;8.83;;;6.60;99.90;;;;;;5083767;28;20524;-68
2020/12/18 07:50:58;;;;;;;9.63;7.53;;;6.60;99.90;;;;;;5091372;28;20542;-68
2020/12/18 07:53:25;;;;;;;8.47;6.83;;;6.70;99.90;;;;;;5081037;28;20816;-68
2020/12/18 07:56:11;;;;;;;10.70;7.80;;;6.80;99.90;;;;;;5080676;28;20473;-68
2020/12/18 07:58:46;;;;;;;10.17;8.00;;;6.80;99.90;;;;;;5080663;28;20516;-68
2020/12/18 08:01:14;;;;;;;10.60;6.90;;;7.00;99.90;;;;;;5079759;28;20945;-68
2020/12/18 08:03:45;;;;;;;12.73;7.27;;;7.00;99.90;;;;;;5080414;28;20535;-68
2020/12/18 08:06:20;;;;;;;15.40;7.90;;;7.20;99.90;;;;;;5084857;28;20957;-68
2020/12/18 08:08:55;;;;;;;11.20;8.10;;;7.40;99.90;;;;;;5092796;28;20546;-68
2020/12/18 08:11:22;;;;;;;9.63;7.50;;;7.70;99.90;;;;;;5081582;28;20440;-68
2020/12/18 08:13:49;;;;;;;9.57;7.33;;;7.70;99.90;;;;;;5073512;28;20561;-68
2020/12/18 08:16:18;;;;;;;9.67;7.83;;;7.50;99.90;;;;;;5089336;28;20477;-68
2020/12/18 08:18:47;;;;;;;7.97;7.10;;;7.50;99.90;;;;;;5081398;28;20510;-68
2020/12/18 08:21:14;;;;;;;12.20;6.60;;;7.60;99.90;;;;;;5083245;28;20546;-68
2020/12/18 08:23:46;;;;;;;10.83;7.63;;;7.80;99.90;;;;;;5083934;28;20512;-68
2020/12/18 08:26:13;;;;;;;13.03;7.27;;;7.70;99.90;;;;;;5072556;28;20531;-68
2020/12/18 08:28:42;;;;;;;13.70;8.60;;;7.70;99.90;;;;;;5077025;28;20800;-68
2020/12/18 08:31:10;;;;;;;11.53;8.23;;;7.70;99.90;;;;;;5086301;28;20528;-68
2020/12/18 08:33:38;;;;;;;11.23;7.07;;;8.00;99.90;;;;;;5088799;28;20476;-68
2020/12/18 08:36:07;;;;;;;10.20;6.80;;;8.10;90.10;;;;;;5085310;28;20560;-68
2020/12/18 08:38:33;;;;;;;13.10;7.50;;;9.00;99.90;;;;;;5080855;28;20485;-68
2020/12/18 08:41:00;;;;;;;16.37;8.20;;;8.90;1.00;;;;;;5088140;28;20459;-69
2020/12/18 08:43:27;;;;;;;10.57;8.00;;;8.40;1.00;;;;;;5090583;28;20484;-68
2020/12/18 08:45:54;;;;;;;9.47;6.90;;;8.10;82.60;;;;;;5076965;28;20456;-68
2020/12/18 08:48:21;;;;;;;14.93;8.70;;;8.10;81.50;;;;;;5083413;28;20528;-68
2020/12/18 08:50:58;;;;;;;11.27;8.10;;;8.00;99.90;;;;;;5090434;28;20449;-69
2020/12/18 08:53:32;;;;;;;13.13;7.83;;;8.10;99.90;;;;;;5079558;28;20883;-69
2020/12/18 08:56:02;;;;;;;12.27;8.00;;;8.10;99.90;;;;;;5079302;28;20571;-69
2020/12/18 08:58:32;;;;;;;9.33;7.57;;;8.20;99.90;;;;;;5086096;28;20440;-69
2020/12/18 09:00:59;;;;;;;13.37;8.00;;;8.20;99.90;;;;;;5078197;28;20961;-69
2020/12/18 09:03:25;;;;;;;10.50;7.93;;;8.00;99.90;;;;;;5080644;28;20465;-69
2020/12/18 09:05:52;;;;;;;10.10;7.47;;;7.90;99.90;;;;;;5081290;28;20922;-69
2020/12/18 09:08:19;;;;;;;14.30;7.80;;;8.00;99.90;;;;;;5091510;28;20448;-69
2020/12/18 09:10:52;;;;;;;15.43;8.20;;;8.10;99.90;;;;;;5080666;28;20446;-69
2020/12/18 09:13:20;;;;;;;15.43;9.17;;;8.10;99.90;;;;;;5083741;28;20694;-69
2020/12/18 09:15:49;;;;;;;10.47;8.40;;;8.20;99.90;;;;;;5084908;28;20564;-69
2020/12/18 09:18:21;;;;;;;11.20;9.07;;;8.20;99.90;;;;;;5084356;28;20484;-69
2020/12/18 09:20:48;;;;;;;12.23;7.33;;;8.30;99.90;;;;;;5079152;28;20464;-69
2020/12/18 09:23:16;;;;;;;12.60;7.57;;;8.20;99.90;;;;;;5085950;28;20537;-69
2020/12/18 09:25:44;;;;;;;13.13;8.73;;;8.40;99.90;;;;;;5085406;28;20960;-70
2020/12/18 09:28:14;;;;;;;15.40;9.03;;;8.30;99.90;;;;;;5075283;28;20529;-69
2020/12/18 09:30:45;;;;;;;15.17;8.73;;;8.00;99.90;;;;;;5082599;28;20751;-69
2020/12/18 09:33:14;;;;;;;14.13;8.83;;;7.90;99.90;;;;;;5088646;28;20531;-69
2020/12/18 09:35:42;;;;;;;14.50;8.60;;;7.80;99.90;;;;;;5071302;28;20599;-69
2020/12/18 09:38:09;;;;;;;13.13;7.67;;;7.70;99.90;;;;;;5078029;28;20449;-69
2020/12/18 09:40:35;;;;;;;17.73;9.40;;;7.70;99.90;;;;;;5086088;28;20440;-68
2020/12/18 09:43:02;;;;;;;15.03;8.87;;;7.70;99.90;;;;;;5090435;28;20444;-67
2020/12/18 09:45:29;;;;;;;10.87;8.80;;;7.70;99.90;;;;;;5078655;28;20441;-67
2020/12/18 09:47:56;;;;;;;13.80;7.83;;;7.70;99.90;;;;;;5079439;28;20469;-67
2020/12/18 09:50:22;;;;;;;12.43;7.50;;;7.80;99.90;;;;;;5087681;28;20535;-67
2020/12/18 09:52:49;;;;;;;13.17;8.07;;;8.50;99.90;;;;;;5078989;28;20488;-68
2020/12/18 09:55:15;;;;;;;13.13;9.43;;;8.30;99.90;;;;;;5080068;28;20526;-67
2020/12/18 09:57:42;;;;;;;11.53;9.00;;;8.30;99.90;;;;;;5078834;28;20910;-69
2020/12/18 10:00:09;;;;;;;12.07;8.80;;;8.30;99.90;;;;;;5083329;28;20456;-69
2020/12/18 10:02:36;;;;;;;15.17;8.50;;;8.40;99.90;;;;;;5073934;28;20456;-67
2020/12/18 10:05:03;;;;;;;16.23;8.90;;;8.40;99.90;;;;;;5083673;28;20549;-70
2020/12/18 10:07:30;;;;;;;14.93;9.00;;;8.50;99.90;;;;;;5086763;28;20448;-69
2020/12/18 10:09:56;;;;;;;12.40;8.80;;;8.60;99.90;;;;;;5086847;28;20532;-69
2020/12/18 10:12:22;;;;;;;11.60;8.90;;;8.60;99.90;;;;;;5077868;28;20576;-69
2020/12/18 10:14:49;;;;;;;12.73;8.53;;;8.60;99.90;;;;;;5086979;28;20531;-69
2020/12/18 10:17:15;;;;;;;9.80;8.50;;;8.70;99.90;;;;;;5090138;28;20579;-70
2020/12/18 10:19:43;;;;;;;12.83;8.00;;;8.70;99.90;;;;;;5076901;28;20475;-69
2020/12/18 10:22:09;;;;;;;8.57;7.37;;;8.80;99.90;;;;;;5081861;28;20547;-69
2020/12/18 10:24:35;;;;;;;10.10;8.60;;;8.80;99.90;;;;;;5088824;28;20441;-68
2020/12/18 10:27:02;;;;;;;9.43;7.13;;;8.80;99.90;;;;;;5078123;28;20521;-69
2020/12/18 10:29:28;;;;;;;13.13;8.97;;;8.80;99.90;;;;;;5081012;28;20515;-68
2020/12/18 10:31:56;;;;;;;9.67;7.23;;;8.80;99.90;;;;;;5083670;28;20476;-69
2020/12/18 10:34:23;;;;;;;10.33;7.27;;;8.90;99.90;;;;;;5082163;28;20481;-69
2020/12/18 10:36:51;;;;;;;10.57;8.20;;;9.10;76.50;;;;;;5076052;28;20568;-68
2020/12/18 10:39:18;;;;;;;9.50;7.90;;;9.10;82.30;;;;;;5084808;28;21009;-69
2020/12/18 10:41:45;;;;;;;12.30;8.57;;;9.20;1.00;;;;;;5086581;28;20528;-68
2020/12/18 10:44:11;;;;;;;12.27;8.90;;;9.20;1.00;;;;;;5083944;28;20942;-69
2020/12/18 10:46:40;;;;;;;13.90;8.33;;;9.30;1.00;;;;;;5078643;28;20445;-69
2020/12/18 10:49:09;;;;;;;13.53;7.57;;;9.40;1.00;;;;;;5086241;28;20440;-69
2020/12/18 10:51:38;;;;;;;11.37;8.40;;;9.40;1.00;;;;;;5087242;28;20543;-69
2020/12/18 10:54:06;;;;;;;12.80;8.20;;;9.50;1.00;;;;;;5075470;28;20441;-68
2020/12/18 10:56:32;;;;;;;15.37;8.93;;;9.50;1.00;;;;;;5082473;28;20512;-69
2020/12/18 10:58:59;;;;;;;9.77;7.10;;;9.60;1.00;;;;;;5085591;28;20510;-69
2020/12/18 11:01:25;;;;;;;10.70;8.20;;;9.60;1.00;;;;;;5075040;28;20529;-68
2020/12/18 11:03:52;;;;;;;10.70;7.60;;;9.60;1.00;;;;;;5075752;28;20456;-69
2020/12/18 11:06:18;;;;;;;9.93;7.87;;;9.60;1.00;;;;;;5082598;28;20952;-67
2020/12/18 11:08:44;;;;;;;12.30;8.20;;;9.60;1.00;;;;;;5088279;28;20528;-69
2020/12/18 11:11:15;;;;;;;10.80;8.60;;;9.80;1.00;;;;;;5078376;28;20470;-67
2020/12/18 11:13:42;;;;;;;12.40;8.20;;;9.80;1.00;;;;;;5078859;28;20543;-67
2020/12/18 11:16:09;;;;;;;8.53;7.13;;;10.00;1.00;;;;;;5085740;28;20641;-69
2020/12/18 11:18:36;;;;;;;10.20;8.53;;;10.00;1.00;;;;;;5079263;28;20856;-69
2020/12/18 11:21:04;;;;;;;9.87;8.87;;;10.10;1.00;;;;;;5079365;28;20484;-70
2020/12/18 11:23:31;;;;;;;11.80;8.63;;;10.30;1.00;;;;;;5083269;28;20460;-67
2020/12/18 11:25:57;;;;;;;10.67;8.00;;;10.30;1.00;;;;;;5083824;28;20549;-68
2020/12/18 11:28:25;;;;;;;12.27;9.30;;;10.40;99.90;;;;;;5073981;28;20456;-68
2020/12/18 11:30:52;;;;;;;10.97;9.07;;;10.40;99.90;;;;;;5083529;28;20468;-68
2020/12/18 11:33:18;;;;;;;15.93;8.70;;;10.40;99.90;;;;;;5087084;28;20429;-69
2020/12/18 11:35:48;;;;;;;11.30;8.37;;;10.50;99.90;;;;;;5072820;28;20476;-70
2020/12/18 11:38:14;;;;;;;12.80;9.13;;;10.40;99.90;;;;;;5076267;28;20456;-69
2020/12/18 11:40:40;;;;;;;14.70;9.80;;;10.30;99.90;;;;;;5086390;28;20552;-68
2020/12/18 11:43:07;;;;;;;10.40;9.03;;;10.30;99.90;;;;;;5089075;28;20476;-68
2020/12/18 11:45:34;;;;;;;14.60;10.90;;;10.40;99.90;;;;;;5076585;28;20446;-68
2020/12/18 11:48:01;;;;;;;10.93;8.50;;;10.40;99.90;;;;;;5078441;28;20445;-68
2020/12/18 11:50:28;;;;;;;13.70;9.20;;;10.40;99.90;;;;;;5087740;28;20515;-68
2020/12/18 11:52:56;;;;;;;10.93;9.80;;;10.50;99.90;;;;;;5077556;28;20456;-69
2020/12/18 11:55:23;;;;;;;13.10;9.33;;;10.50;99.90;;;;;;5080219;28;20780;-68
2020/12/18 11:57:49;;;;;;;10.43;8.93;;;10.50;99.90;;;;;;5073239;28;20987;-68
2020/12/18 12:00:19;;;;;;;11.87;7.13;;;10.70;99.90;;;;;;5082565;28;20532;-68
2020/12/18 12:02:48;;;;;;;8.67;7.73;;;10.80;99.90;;;;;;5074687;28;20514;-68
2020/12/18 12:05:15;;;;;;;10.27;6.30;;;10.90;99.90;;;;;;5082202;28;20452;-68
2020/12/18 12:07:41;;;;;;;8.20;7.20;;;11.00;99.90;;;;;;5084845;28;20539;-68
2020/12/18 12:10:08;;;;;;;10.17;6.90;;;11.20;1.00;;;;;;5084000;28;20578;-68
2020/12/18 12:12:34;;;;;;;6.53;5.53;;;11.40;1.00;;;;;;5080403;28;20564;-68
2020/12/18 12:15:00;;;;;;;8.70;6.20;;;11.60;99.90;;;;;;5087867;28;20528;-68
2020/12/18 12:17:28;;;;;;;6.30;5.70;;;11.60;1.00;;;;;;5090195;28;20476;-68
2020/12/18 12:19:55;;;;;;;7.07;5.73;;;11.60;99.90;;;;;;5077691;28;20460;-68
2020/12/18 12:22:23;;;;;;;6.60;5.37;;;11.50;1.00;;;;;;5082799;28;20531;-68
2020/12/18 12:24:58;;;;;;;8.50;5.30;;;11.50;99.90;;;;;;5089828;28;20495;-69
2020/12/18 12:27:26;;;;;;;7.73;6.80;;;11.60;99.90;;;;;;5078968;28;20450;-68
2020/12/18 12:29:53;;;;;;;6.70;5.43;;;11.50;1.00;;;;;;5079304;28;20526;-68
2020/12/18 12:32:20;;;;;;;9.30;5.60;;;11.50;99.90;;;;;;5086716;28;20484;-68
2020/12/18 12:34:46;;;;;;;9.53;6.20;;;11.60;91.90;;;;;;5091897;28;20444;-68
2020/12/18 12:37:14;;;;;;;7.20;4.80;;;11.50;99.90;;;;;;5081288;28;20478;-68
2020/12/18 12:39:41;;;;;;;5.47;4.97;;;11.60;18.00;;;;;;5082142;28;20920;-68
2020/12/18 12:42:07;;;;;;;6.27;5.67;;;11.80;1.00;;;;;;5088598;28;20883;-68
2020/12/18 12:44:34;;;;;;;5.87;5.23;;;11.80;99.90;;;;;;5082269;28;20533;-68
2020/12/18 12:47:01;;;;;;;7.10;5.83;;;11.60;99.90;;;;;;5081640;28;20456;-68
2020/12/18 12:49:27;;;;;;;8.80;6.00;;;11.60;1.00;;;;;;5085434;28;20528;-67
2020/12/18 12:51:55;;;;;;;7.23;5.53;;;11.70;1.00;;;;;;5086572;28;20549;-68
2020/12/18 12:54:22;;;;;;;6.43;5.63;;;11.50;99.90;;;;;;5075498;28;20442;-67
2020/12/18 12:56:49;;;;;;;7.10;6.23;;;11.50;99.90;;;;;;5084257;28;21063;-68
2020/12/18 12:59:15;;;;;;;6.07;4.73;;;11.60;99.90;;;;;;5069098;28;20457;-68
2020/12/18 13:01:42;;;;;;;5.30;4.80;;;11.80;1.00;;;;;;5074310;28;20441;-68
2020/12/18 13:04:09;;;;;;;10.73;5.13;;;11.90;99.90;;;;;;5077892;28;20528;-69